createdAt,value
2019-05-21T00:00:03.573Z,13.73
2019-05-21T00:02:33.191Z,14.17
2019-05-21T00:05:02.774Z,13.77
2019-05-21T00:07:32.576Z,13.73
2019-05-21T00:10:02.512Z,14.70
2019-05-21T00:12:32.609Z,13.87
2019-05-21T00:15:02.531Z,13.60
2019-05-21T00:17:32.413Z,13.93
2019-05-21T00:20:02.273Z,14.47
2019-05-21T00:22:32.265Z,14.27
2019-05-21T00:25:02.511Z,14.13
2019-05-21T00:27:32.823Z,14.57
2019-05-21T00:30:37.963Z,15.07
2019-05-21T00:33:43.268Z,14.30
2019-05-21T00:36:49.654Z,14.83
2019-05-21T00:39:55.140Z,14.47
2019-05-21T00:42:32.033Z,14.80
2019-05-21T00:45:02.344Z,14.30
2019-05-21T00:47:35.309Z,15.00
2019-05-21T00:50:06.417Z,15.07
2019-05-21T00:52:36.026Z,14.67
2019-05-21T00:55:05.920Z,14.50
2019-05-21T00:57:35.480Z,14.63
2019-05-21T01:00:06.058Z,14.93
2019-05-21T01:02:35.661Z,15.10
2019-05-21T01:05:05.661Z,15.30
2019-05-21T01:07:35.238Z,15.27
2019-05-21T01:10:05.121Z,15.50
2019-05-21T01:12:36.190Z,14.77
2019-05-21T01:15:06.003Z,15.23
2019-05-21T01:17:35.486Z,15.10
2019-05-21T01:20:05.106Z,15.47
2019-05-21T01:22:34.595Z,15.03
2019-05-21T01:25:04.333Z,15.33
2019-05-21T01:27:34.262Z,15.27
2019-05-21T01:30:04.157Z,15.20
2019-05-21T01:32:33.661Z,16.07
2019-05-21T01:35:16.006Z,15.50
2019-05-21T01:37:34.687Z,15.60
2019-05-21T01:40:04.434Z,15.57
2019-05-21T01:42:34.013Z,15.67
2019-05-21T01:45:03.575Z,15.97
2019-05-21T01:47:33.343Z,15.70
2019-05-21T01:50:02.935Z,15.50
2019-05-21T01:52:32.702Z,15.80
2019-05-21T01:55:05.474Z,16.03
2019-05-21T01:57:35.025Z,15.77
2019-05-21T02:00:04.819Z,16.07
2019-05-21T02:02:35.323Z,15.67
2019-05-21T02:05:04.985Z,15.83
2019-05-21T02:07:34.516Z,16.07
2019-05-21T02:10:04.777Z,15.90
2019-05-21T02:12:34.423Z,16.13
2019-05-21T02:15:04.042Z,15.60
2019-05-21T02:17:33.912Z,16.63
2019-05-21T02:20:03.481Z,16.80
2019-05-21T02:22:33.105Z,15.90
2019-05-21T02:25:02.820Z,16.40
2019-05-21T02:27:35.409Z,16.93
2019-05-21T02:30:07.251Z,16.30
2019-05-21T02:32:37.297Z,16.17
2019-05-21T02:35:07.603Z,17.43
2019-05-21T02:37:37.104Z,17.30
2019-05-21T02:40:07.287Z,17.80
2019-05-21T02:42:37.752Z,16.83
2019-05-21T02:45:08.267Z,17.00
2019-05-21T02:47:37.982Z,17.20
2019-05-21T02:50:08.532Z,16.80
2019-05-21T02:52:38.047Z,16.20
2019-05-21T02:55:08.154Z,17.13
2019-05-21T02:57:41.802Z,16.83
2019-05-21T03:00:38.601Z,17.27
2019-05-21T03:03:07.409Z,17.80
2019-05-21T03:05:37.354Z,16.93
2019-05-21T03:08:06.864Z,17.57
2019-05-21T03:10:36.573Z,17.00
2019-05-21T03:13:06.472Z,17.03
2019-05-21T03:15:36.105Z,17.47
2019-05-21T03:18:05.904Z,16.97
2019-05-21T03:20:35.615Z,17.77
2019-05-21T03:23:05.231Z,17.73
2019-05-21T03:25:34.817Z,17.50
2019-05-21T03:28:04.606Z,17.60
2019-05-21T03:30:34.158Z,17.40
2019-05-21T03:33:03.696Z,17.63
2019-05-21T03:35:33.741Z,17.63
2019-05-21T03:38:03.189Z,17.73
2019-05-21T03:40:32.731Z,18.47
2019-05-21T03:43:05.343Z,17.87
2019-05-21T03:45:34.968Z,17.37
2019-05-21T03:48:04.733Z,18.00
2019-05-21T03:50:34.769Z,17.60
2019-05-21T03:53:04.177Z,18.17
2019-05-21T03:55:33.781Z,17.43
2019-05-21T03:58:03.616Z,17.80
2019-05-21T04:00:33.217Z,17.50
2019-05-21T04:03:02.843Z,18.20
2019-05-21T04:05:32.805Z,18.03
2019-05-21T04:08:02.703Z,17.73
2019-05-21T04:10:33.086Z,17.83
2019-05-21T04:13:09.861Z,18.40
2019-05-21T04:15:59.752Z,18.00
2019-05-21T04:18:43.779Z,17.40
2019-05-21T04:21:13.522Z,17.53
2019-05-21T04:23:43.254Z,17.83
2019-05-21T04:26:13.020Z,18.20
2019-05-21T04:28:42.707Z,17.73
2019-05-21T04:31:12.454Z,17.70
2019-05-21T04:33:42.164Z,17.67
2019-05-21T04:36:11.848Z,17.20
2019-05-21T04:38:41.349Z,18.60
2019-05-21T04:41:11.557Z,19.10
2019-05-21T04:43:41.172Z,19.30
2019-05-21T04:46:11.551Z,19.20
2019-05-21T04:48:41.272Z,18.40
2019-05-21T04:51:13.689Z,18.07
2019-05-21T04:53:42.378Z,18.20
2019-05-21T04:56:11.984Z,17.50
2019-05-21T04:58:41.512Z,17.63
2019-05-21T05:01:11.100Z,17.67
2019-05-21T05:03:40.637Z,17.93
2019-05-21T05:06:10.388Z,18.07
2019-05-21T05:08:40.100Z,17.67
2019-05-21T05:11:09.784Z,17.67
2019-05-21T05:13:39.222Z,17.90
2019-05-21T05:16:09.167Z,17.67
2019-05-21T05:18:38.664Z,18.00
2019-05-21T05:21:08.347Z,17.83
2019-05-21T05:23:38.029Z,17.07
2019-05-21T05:26:08.043Z,16.93
2019-05-21T05:28:37.632Z,16.93
2019-05-21T05:31:07.808Z,17.27
2019-05-21T05:33:37.439Z,17.40
2019-05-21T05:36:07.138Z,16.37
2019-05-21T05:38:37.245Z,16.27
2019-05-21T05:41:06.990Z,16.73
2019-05-21T05:43:36.893Z,16.87
2019-05-21T05:46:06.882Z,16.43
2019-05-21T05:48:42.458Z,15.50
2019-05-21T05:51:12.723Z,16.60
2019-05-21T05:53:58.272Z,15.77
2019-05-21T05:56:29.643Z,16.73
2019-05-21T05:59:00.810Z,16.00
2019-05-21T06:01:33.197Z,15.80
2019-05-21T06:04:02.876Z,16.27
2019-05-21T06:06:32.635Z,15.17
2019-05-21T06:09:02.903Z,15.33
2019-05-21T06:11:32.927Z,14.90
2019-05-21T06:14:03.017Z,14.07
2019-05-21T06:16:32.971Z,14.10
2019-05-21T06:19:02.765Z,14.33
2019-05-21T06:21:32.932Z,13.17
2019-05-21T06:24:03.158Z,12.67
2019-05-21T06:26:32.684Z,13.23
2019-05-21T06:29:02.685Z,12.00
2019-05-21T06:31:33.042Z,12.00
2019-05-21T06:34:02.760Z,12.80
2019-05-21T06:36:32.827Z,12.30
2019-05-21T06:39:04.135Z,13.33
2019-05-21T06:41:33.763Z,11.73
2019-05-21T06:44:03.460Z,12.47
2019-05-21T06:46:33.382Z,11.70
2019-05-21T06:49:03.714Z,10.50
2019-05-21T06:51:33.621Z,10.37
2019-05-21T06:54:03.376Z,10.93
2019-05-21T06:56:33.121Z,12.20
2019-05-21T06:59:02.873Z,11.30
2019-05-21T07:01:33.001Z,10.70
2019-05-21T07:04:03.144Z,11.90
2019-05-21T07:06:32.657Z,11.00
2019-05-21T07:09:05.869Z,11.73
2019-05-21T07:11:35.592Z,11.73
2019-05-21T07:14:05.206Z,9.93
2019-05-21T07:16:35.189Z,10.50
2019-05-21T07:19:04.790Z,10.03
2019-05-21T07:21:34.376Z,9.17
2019-05-21T07:24:04.069Z,9.40
2019-05-21T07:26:33.525Z,9.00
2019-05-21T07:29:03.084Z,8.63
2019-05-21T07:31:32.780Z,8.87
2019-05-21T07:34:05.444Z,8.63
2019-05-21T07:36:35.962Z,9.00
2019-05-21T07:39:07.687Z,9.07
2019-05-21T07:41:37.421Z,8.20
2019-05-21T07:44:07.090Z,9.17
2019-05-21T07:46:39.534Z,9.00
2019-05-21T07:49:08.090Z,12.43
2019-05-21T07:51:37.630Z,9.60
2019-05-21T07:54:07.993Z,9.30
2019-05-21T07:56:37.812Z,9.80
2019-05-21T07:59:07.496Z,9.33
2019-05-21T08:01:37.165Z,9.13
2019-05-21T08:04:07.139Z,9.73
2019-05-21T08:06:36.774Z,9.90
2019-05-21T08:09:14.270Z,10.20
2019-05-21T08:11:38.718Z,9.93
2019-05-21T08:14:08.535Z,9.70
2019-05-21T08:16:38.165Z,9.97
2019-05-21T08:19:07.779Z,10.07
2019-05-21T08:21:37.440Z,9.93
2019-05-21T08:24:07.043Z,10.63
2019-05-21T08:26:36.972Z,10.20
2019-05-21T08:29:06.479Z,10.17
2019-05-21T08:31:36.197Z,10.50
2019-05-21T08:34:06.065Z,9.77
2019-05-21T08:36:35.601Z,9.90
2019-05-21T08:39:06.491Z,10.37
2019-05-21T08:41:36.431Z,9.80
2019-05-21T08:44:05.953Z,11.67
2019-05-21T08:46:35.544Z,10.73
2019-05-21T08:49:05.888Z,11.10
2019-05-21T08:51:35.439Z,10.30
2019-05-21T08:54:05.181Z,9.77
2019-05-21T08:56:35.047Z,10.23
2019-05-21T08:59:04.598Z,10.10
2019-05-21T09:01:36.268Z,9.27
2019-05-21T09:04:06.127Z,9.50
2019-05-21T09:06:35.771Z,9.33
2019-05-21T09:09:06.693Z,9.80
2019-05-21T09:11:36.781Z,9.30
2019-05-21T09:14:06.374Z,9.30
2019-05-21T09:16:36.254Z,9.37
2019-05-21T09:19:05.903Z,10.20
2019-05-21T09:21:35.645Z,9.03
2019-05-21T09:24:05.713Z,9.30
2019-05-21T09:26:35.629Z,9.93
2019-05-21T09:29:05.706Z,10.10
2019-05-21T09:31:36.098Z,10.57
2019-05-21T09:34:06.043Z,10.87
2019-05-21T09:36:36.338Z,10.53
2019-05-21T09:39:07.807Z,10.00
2019-05-21T09:41:37.559Z,10.50
2019-05-21T09:44:07.652Z,10.27
2019-05-21T09:46:37.385Z,10.57
2019-05-21T09:49:07.257Z,10.37
2019-05-21T09:51:36.902Z,10.10
2019-05-21T09:54:06.541Z,10.57
2019-05-21T09:56:36.800Z,10.33
2019-05-21T09:59:16.115Z,10.03
2019-05-21T10:01:48.832Z,9.67
2019-05-21T10:04:18.712Z,9.87
2019-05-21T10:06:48.410Z,9.47
2019-05-21T10:09:19.663Z,8.67
2019-05-21T10:11:49.165Z,7.90
2019-05-21T10:14:18.933Z,8.73
2019-05-21T10:16:48.658Z,8.50
2019-05-21T10:19:18.179Z,7.40
2019-05-21T10:21:47.797Z,7.70
2019-05-21T10:24:18.004Z,7.47
2019-05-21T10:26:47.580Z,7.47
2019-05-21T10:29:17.193Z,7.33
2019-05-21T10:31:46.998Z,6.47
2019-05-21T10:34:16.562Z,5.60
2019-05-21T10:36:46.165Z,5.40
2019-05-21T10:39:15.876Z,4.90
2019-05-21T10:41:46.307Z,4.90
2019-05-21T10:44:16.023Z,4.77
2019-05-21T10:46:45.648Z,4.57
2019-05-21T10:49:15.230Z,4.17
2019-05-21T10:51:44.830Z,4.50
2019-05-21T10:54:14.653Z,4.23
2019-05-21T10:56:47.861Z,5.13
2019-05-21T10:59:16.319Z,4.40
2019-05-21T11:02:17.041Z,4.43
2019-05-21T11:04:59.806Z,4.53
2019-05-21T11:07:29.607Z,4.60
2019-05-21T11:09:59.460Z,4.07
2019-05-21T11:12:32.039Z,4.20
2019-05-21T11:15:01.870Z,4.33
2019-05-21T11:17:48.054Z,4.30
2019-05-21T11:20:03.379Z,4.07
2019-05-21T11:22:32.979Z,4.23
2019-05-21T11:25:02.758Z,4.53
2019-05-21T11:27:33.162Z,4.50
2019-05-21T11:30:02.963Z,4.37
2019-05-21T11:32:32.755Z,5.70
2019-05-21T11:35:06.044Z,3.83
2019-05-21T11:37:35.673Z,3.07
2019-05-21T11:40:08.509Z,3.10
2019-05-21T11:42:37.560Z,3.20
2019-05-21T11:45:09.993Z,3.50
2019-05-21T11:47:39.711Z,2.97
2019-05-21T11:50:09.332Z,2.80
2019-05-21T11:52:39.021Z,2.93
2019-05-21T11:55:08.908Z,2.90
2019-05-21T11:57:38.482Z,2.90
2019-05-21T12:00:09.236Z,3.10
2019-05-21T12:02:39.277Z,3.33
2019-05-21T12:05:09.939Z,3.30
2019-05-21T12:07:39.515Z,3.70
2019-05-21T12:10:09.628Z,3.83
2019-05-21T12:12:39.369Z,3.70
2019-05-21T12:15:10.039Z,3.90
2019-05-21T12:17:39.644Z,4.10
2019-05-21T12:20:42.953Z,4.07
2019-05-21T12:23:43.481Z,3.83
2019-05-21T12:26:13.222Z,3.63
2019-05-21T12:28:42.998Z,3.50
2019-05-21T12:31:12.627Z,3.70
2019-05-21T12:33:44.431Z,3.43
2019-05-21T12:36:13.996Z,3.47
2019-05-21T12:38:43.639Z,3.90
2019-05-21T12:41:14.035Z,4.30
2019-05-21T12:43:43.556Z,4.67
2019-05-21T12:46:13.240Z,3.87
2019-05-21T12:48:42.952Z,4.23
2019-05-21T12:51:12.581Z,4.70
2019-05-21T12:53:42.432Z,4.60
2019-05-21T12:56:12.320Z,4.70
2019-05-21T12:58:42.083Z,5.20
2019-05-21T13:01:11.657Z,5.10
2019-05-21T13:03:41.462Z,4.80
2019-05-21T13:06:10.940Z,5.07
2019-05-21T13:08:40.569Z,4.90
2019-05-21T13:11:10.201Z,5.23
2019-05-21T13:13:40.061Z,5.30
2019-05-21T13:16:09.614Z,5.03
2019-05-21T13:18:39.191Z,4.73
2019-05-21T13:21:08.761Z,4.73
2019-05-21T13:23:38.326Z,4.97
2019-05-21T13:26:08.685Z,5.20
2019-05-21T13:28:38.999Z,5.53
2019-05-21T13:31:08.874Z,5.80
2019-05-21T13:33:38.430Z,5.83
2019-05-21T13:36:08.351Z,5.80
2019-05-21T13:38:39.166Z,5.87
2019-05-21T13:41:10.198Z,6.00
2019-05-21T13:43:40.288Z,6.07
2019-05-21T13:46:10.002Z,5.60
2019-05-21T13:48:39.949Z,5.63
2019-05-21T13:51:09.434Z,5.73
2019-05-21T13:53:39.556Z,5.57
2019-05-21T13:56:09.394Z,6.10
2019-05-21T13:58:39.045Z,5.70
2019-05-21T14:01:09.350Z,5.97
2019-05-21T14:03:39.507Z,6.33
2019-05-21T14:06:09.180Z,6.37
2019-05-21T14:08:38.699Z,6.87
2019-05-21T14:11:08.870Z,5.50
2019-05-21T14:13:38.523Z,4.63
2019-05-21T14:16:08.026Z,4.20
2019-05-21T14:18:37.853Z,4.70
2019-05-21T14:21:07.575Z,4.30
2019-05-21T14:23:37.100Z,5.10
2019-05-21T14:26:06.921Z,3.00
2019-05-21T14:28:36.527Z,3.10
2019-05-21T14:31:06.098Z,3.10
2019-05-21T14:33:35.832Z,3.47
2019-05-21T14:36:05.955Z,3.20
2019-05-21T14:38:35.702Z,3.07
2019-05-21T14:41:05.530Z,3.70
2019-05-21T14:43:35.217Z,3.37
2019-05-21T14:46:05.178Z,3.20
2019-05-21T14:48:34.726Z,3.40
2019-05-21T14:51:05.017Z,3.60
2019-05-21T14:53:34.612Z,4.00
2019-05-21T14:56:04.232Z,6.23
2019-05-21T14:58:33.967Z,3.93
2019-05-21T15:01:03.543Z,4.30
2019-05-21T15:03:33.024Z,7.70
2019-05-21T15:06:02.709Z,4.50
2019-05-21T15:08:35.291Z,3.37
2019-05-21T15:11:04.970Z,2.70
2019-05-21T15:13:34.518Z,2.77
2019-05-21T15:16:04.374Z,3.00
2019-05-21T15:18:34.045Z,3.67
2019-05-21T15:21:11.355Z,4.00
2019-05-21T15:23:41.608Z,3.60
2019-05-21T15:26:12.131Z,3.40
2019-05-21T15:28:41.626Z,3.73
2019-05-21T15:31:11.285Z,3.93
2019-05-21T15:33:40.886Z,3.43
2019-05-21T15:36:10.404Z,4.00
2019-05-21T15:38:50.264Z,5.10
2019-05-21T15:41:12.787Z,4.23
2019-05-21T15:43:42.644Z,3.33
2019-05-21T15:46:12.260Z,3.03
2019-05-21T15:48:41.728Z,2.70
2019-05-21T15:51:11.528Z,2.60
2019-05-21T15:53:41.127Z,2.87
2019-05-21T15:56:10.820Z,3.03
2019-05-21T15:58:40.323Z,4.40
2019-05-21T16:01:09.830Z,3.53
2019-05-21T16:03:39.384Z,4.30
2019-05-21T16:06:08.878Z,5.00
2019-05-21T16:08:38.560Z,3.97
2019-05-21T16:11:08.281Z,5.57
2019-05-21T16:13:37.796Z,3.73
2019-05-21T16:16:07.242Z,5.60
2019-05-21T16:18:37.111Z,4.73
2019-05-21T16:21:06.771Z,5.07
2019-05-21T16:23:36.471Z,4.97
2019-05-21T16:26:06.150Z,4.83
2019-05-21T16:28:36.092Z,4.80
2019-05-21T16:31:05.855Z,4.30
2019-05-21T16:33:35.563Z,4.30
2019-05-21T16:36:05.385Z,4.43
2019-05-21T16:38:36.313Z,4.80
2019-05-21T16:41:06.088Z,5.90
2019-05-21T16:43:35.735Z,6.70
2019-05-21T16:46:05.487Z,6.80
2019-05-21T16:48:35.026Z,8.27
2019-05-21T16:51:04.750Z,9.70
2019-05-21T16:53:36.889Z,7.23
2019-05-21T16:56:06.607Z,8.93
2019-05-21T16:58:36.412Z,8.30
2019-05-21T17:01:07.310Z,7.27
2019-05-21T17:03:37.396Z,8.03
2019-05-21T17:06:07.083Z,8.00
2019-05-21T17:08:37.190Z,8.67
2019-05-21T17:11:07.227Z,8.50
2019-05-21T17:13:36.798Z,8.23
2019-05-21T17:16:06.688Z,8.73
2019-05-21T17:18:36.268Z,9.37
2019-05-21T17:21:06.459Z,9.20
2019-05-21T17:23:36.416Z,9.27
2019-05-21T17:26:06.289Z,20.10
2019-05-21T17:28:36.030Z,9.20
2019-05-21T17:31:05.914Z,9.50
2019-05-21T17:33:35.528Z,9.40
2019-05-21T17:36:05.176Z,9.80
2019-05-21T17:38:37.492Z,10.33
2019-05-21T17:41:09.479Z,8.90
2019-05-21T17:43:39.719Z,9.93
2019-05-21T17:46:09.533Z,9.27
2019-05-21T17:48:39.303Z,9.90
2019-05-21T17:51:09.434Z,11.13
2019-05-21T17:53:39.202Z,11.30
2019-05-21T17:56:08.863Z,10.63
2019-05-21T17:58:38.964Z,10.87
2019-05-21T18:01:11.587Z,10.80
2019-05-21T18:03:42.482Z,10.23
2019-05-21T18:06:12.450Z,12.00
2019-05-21T18:08:46.437Z,12.67
2019-05-21T18:11:17.468Z,12.37
2019-05-21T18:13:49.689Z,16.40
2019-05-21T18:16:20.642Z,13.80
2019-05-21T18:18:53.683Z,13.27
2019-05-21T18:21:29.228Z,13.03
2019-05-21T18:24:03.663Z,12.67
2019-05-21T18:26:33.935Z,13.30
2019-05-21T18:29:03.750Z,12.60
2019-05-21T18:31:33.779Z,13.30
2019-05-21T18:34:03.635Z,12.83
2019-05-21T18:36:33.472Z,12.90
2019-05-21T18:39:03.350Z,13.30
2019-05-21T18:41:33.065Z,13.27
2019-05-21T18:44:05.827Z,12.40
2019-05-21T18:46:35.570Z,12.50
2019-05-21T18:49:05.264Z,12.83
2019-05-21T18:51:35.077Z,13.30
2019-05-21T18:54:04.878Z,13.30
2019-05-21T18:56:34.501Z,13.77
2019-05-21T18:59:05.161Z,13.73
2019-05-21T19:01:38.177Z,13.90
2019-05-21T19:04:08.213Z,18.93
2019-05-21T19:06:37.788Z,15.50
2019-05-21T19:09:08.651Z,14.67
2019-05-21T19:11:38.485Z,14.90
2019-05-21T19:14:08.115Z,14.23
2019-05-21T19:16:37.636Z,14.77
2019-05-21T19:19:07.593Z,14.33
2019-05-21T19:21:37.419Z,15.87
2019-05-21T19:24:07.232Z,14.93
2019-05-21T19:26:37.115Z,14.23
2019-05-21T19:29:07.868Z,14.17
2019-05-21T19:31:38.100Z,13.90
2019-05-21T19:34:08.767Z,13.63
2019-05-21T19:36:39.644Z,14.20
2019-05-21T19:39:09.472Z,14.00
2019-05-21T19:41:39.605Z,13.63
2019-05-21T19:44:09.341Z,13.43
2019-05-21T19:46:38.922Z,13.87
2019-05-21T19:49:08.555Z,13.43
2019-05-21T19:51:38.289Z,13.43
2019-05-21T19:54:07.860Z,13.97
2019-05-21T19:56:39.736Z,13.93
2019-05-21T19:59:09.684Z,14.17
2019-05-21T20:01:39.659Z,13.80
2019-05-21T20:04:11.614Z,14.80
2019-05-21T20:06:41.266Z,15.40
2019-05-21T20:09:15.209Z,15.37
2019-05-21T20:11:45.315Z,15.50
2019-05-21T20:14:15.235Z,14.87
2019-05-21T20:16:45.379Z,15.47
2019-05-21T20:19:15.521Z,14.73
2019-05-21T20:21:45.278Z,15.73
2019-05-21T20:24:15.315Z,15.37
2019-05-21T20:26:45.566Z,15.57
2019-05-21T20:29:16.160Z,14.90
2019-05-21T20:31:45.904Z,15.43
2019-05-21T20:34:15.725Z,15.87
2019-05-21T20:36:45.489Z,15.80
2019-05-21T20:39:18.841Z,16.23
2019-05-21T20:41:49.955Z,16.47
2019-05-21T20:44:20.427Z,15.60
2019-05-21T20:46:50.028Z,16.30
2019-05-21T20:49:20.090Z,16.03
2019-05-21T20:51:50.184Z,15.77
2019-05-21T20:54:21.931Z,15.33
2019-05-21T20:56:52.113Z,15.63
2019-05-21T20:59:21.723Z,15.23
2019-05-21T21:01:51.362Z,15.10
2019-05-21T21:04:20.873Z,13.83
2019-05-21T21:06:50.436Z,13.37
2019-05-21T21:09:20.631Z,12.43
2019-05-21T21:11:51.126Z,11.93
2019-05-21T21:14:22.525Z,11.60
2019-05-21T21:16:52.730Z,11.57
2019-05-21T21:19:22.748Z,10.17
2019-05-21T21:21:52.912Z,11.10
2019-05-21T21:24:22.467Z,10.77
2019-05-21T21:26:52.492Z,10.90
2019-05-21T21:29:22.362Z,11.00
2019-05-21T21:31:51.890Z,11.00
2019-05-21T21:34:21.723Z,11.30
2019-05-21T21:36:53.266Z,10.83
2019-05-21T21:39:23.477Z,10.67
2019-05-21T21:41:53.321Z,11.40
2019-05-21T21:44:33.649Z,11.67
2019-05-21T21:46:55.200Z,12.10
2019-05-21T21:49:27.506Z,11.23
2019-05-21T21:51:57.025Z,12.30
2019-05-21T21:54:26.581Z,11.73
2019-05-21T21:56:56.335Z,11.93
2019-05-21T21:59:26.137Z,11.93
2019-05-21T22:02:00.216Z,11.90
2019-05-21T22:04:35.782Z,12.20
2019-05-21T22:07:06.149Z,11.77
2019-05-21T22:09:37.864Z,11.60
2019-05-21T22:12:10.366Z,11.83
2019-05-21T22:14:50.222Z,12.33
2019-05-21T22:17:15.870Z,12.60
2019-05-21T22:19:45.440Z,12.50
2019-05-21T22:22:14.997Z,12.53
2019-05-21T22:24:44.917Z,12.70
2019-05-21T22:27:14.576Z,12.40
2019-05-21T22:29:44.326Z,12.73
2019-05-21T22:32:16.629Z,13.27
2019-05-21T22:34:45.409Z,13.67
2019-05-21T22:37:16.958Z,13.80
2019-05-21T22:39:48.068Z,14.10
2019-05-21T22:42:17.747Z,14.40
2019-05-21T22:44:48.136Z,13.07
2019-05-21T22:47:17.762Z,13.53
2019-05-21T22:49:47.463Z,14.43
2019-05-21T22:52:17.261Z,14.20
2019-05-21T22:54:47.579Z,14.23
2019-05-21T22:57:17.383Z,14.33
2019-05-21T22:59:48.165Z,15.13
2019-05-21T23:02:22.595Z,14.03
2019-05-21T23:04:52.637Z,15.13
2019-05-21T23:07:22.348Z,15.10
2019-05-21T23:09:51.810Z,15.13
2019-05-21T23:12:21.522Z,17.40
2019-05-21T23:14:51.355Z,17.63
2019-05-21T23:17:21.389Z,18.47
2019-05-21T23:19:51.190Z,18.37
2019-05-21T23:22:23.029Z,19.03
2019-05-21T23:24:53.373Z,19.23
2019-05-21T23:27:22.949Z,20.07
2019-05-21T23:29:52.996Z,20.07
2019-05-21T23:32:23.417Z,20.43
2019-05-21T23:34:53.623Z,20.83
2019-05-21T23:37:24.188Z,20.37
2019-05-21T23:39:55.760Z,20.60
2019-05-21T23:42:29.906Z,20.60
2019-05-21T23:44:57.772Z,19.83
2019-05-21T23:47:27.591Z,21.27
2019-05-21T23:49:57.093Z,20.73
2019-05-21T23:52:27.635Z,20.97
2019-05-21T23:54:59.886Z,21.23
2019-05-21T23:57:30.826Z,20.50
